• Join FlightAware (Why Join?)
  • Login
  • US Flag 
01:36PM EDT


 

Airport Tracker/Info


-or-


 

Live Flight TrackerFlight Track Log ✈ KLM1692 ✈ 06-Jul-2013 ✈ LPPT / LIS - EHAM / AMS

Flight Track Log - Related Links

Times and Time Zones

All times are in EDT time to prevent confusion due to time zone crossing. See the KLM1692 flight status page for this flight to view local times or setup timezone preferences in your user account.

Time Position Orientation Groundspeed Altitude Reporting Facility
EDT Latitude Longitude Course Direction KTS MPH feet Rate Location/Type
01:29AM 38.8180 -9.1160 24° Northeast 181 208 1,800  Level FlightAware
01:29AM 38.8420 -9.1010 26° Northeast 177 204 3,200 2,100 Climbing FlightAware
01:30AM 38.8550 -9.0860 42° Northeast 193 222 3,700 1,800 Climbing FlightAware
01:31AM 38.9100 -9.0180 44° Northeast 272 313 5,900 2,400 Climbing FlightAware
01:31AM 38.9370 -8.9850 44° Northeast 273 314 7,500 3,420 Climbing FlightAware
01:31AM 38.9500 -8.9670 47° Northeast 278 320 8,300 3,060 Climbing FlightAware
01:32AM 38.9800 -8.9300 44° Northeast 289 333 9,800 2,160 Climbing FlightAware
01:33AM 39.0260 -8.8720 44° Northeast 338 389 11,000 2,040 Climbing FlightAware
01:33AM 39.0720 -8.8150 44° Northeast 354 407 12,700 2,460 Climbing FlightAware
01:34AM 39.1180 -8.7560 45° Northeast 367 422 14,300 2,460 Climbing FlightAware
01:35AM 39.1690 -8.6920 44° Northeast 379 436 16,000 2,580 Climbing FlightAware
01:35AM 39.2190 -8.6280 45° Northeast 380 437 17,800 2,460 Climbing FlightAware
01:36AM 39.2700 -8.5640 44° Northeast 391 450 19,300 2,100 Climbing FlightAware
01:37AM 39.3160 -8.5050 45° Northeast 403 464 20,500 1,980 Climbing FlightAware
01:37AM 39.3760 -8.4280 45° Northeast 413 475 22,000 2,040 Climbing FlightAware
01:38AM 39.4320 -8.3580 44° Northeast 421 484 23,400 1,920 Climbing FlightAware
01:39AM 39.4950 -8.2770 45° Northeast 432 497 24,800 1,740 Climbing FlightAware
01:39AM 39.5510 -8.2030 46° Northeast 441 507 25,900 1,620 Climbing FlightAware
01:40AM 39.6110 -8.1250 45° Northeast 449 517 27,000 1,680 Climbing FlightAware
01:41AM 39.6700 -8.0510 44° Northeast 453 521 28,200 1,620 Climbing FlightAware
01:41AM 39.7280 -7.9760 45° Northeast 456 525 29,200 1,500 Climbing FlightAware
01:42AM 39.7890 -7.8960 45° Northeast 460 529 30,200 1,320 Climbing FlightAware
01:43AM 39.8510 -7.8150 45° Northeast 469 540 31,000 1,080 Climbing FlightAware
01:43AM 39.9110 -7.7380 45° Northeast 475 547 31,700 1,200 Climbing FlightAware
01:44AM 39.9820 -7.6440 45° Northeast 478 550 32,700 1,260 Climbing FlightAware
01:45AM 40.0450 -7.5620 45° Northeast 481 554 33,500 1,200 Climbing FlightAware
01:46AM 40.1380 -7.4380 46° Northeast 483 556 34,700 1,140 Climbing FlightAware
01:47AM 40.2030 -7.3520 45° Northeast 485 558 35,400 1,320 Climbing FlightAware
01:47AM 40.2730 -7.2590 45° Northeast 475 547 36,600 1,500 Climbing FlightAware
01:48AM 40.3330 -7.1800 45° Northeast 463 533 37,600 1,020 Climbing FlightAware
01:49AM 40.3920 -7.1000 46° Northeast 463 533 38,000 300 Climbing FlightAware
01:49AM 40.4480 -7.0250 46° Northeast 465 535 38,000  Level FlightAware
01:50AM 40.5080 -6.9440 46° Northeast 467 537 38,000  Level FlightAware
01:51AM 40.5880 -6.8390 45° Northeast 469 540 38,000  Level FlightAware
01:51AM 40.6500 -6.7550 46° Northeast 470 541 38,000  Level FlightAware
01:52AM 40.7100 -6.6720 46° Northeast 471 542 38,000  Level FlightAware
01:53AM 40.7790 -6.5800 45° Northeast 469 540 38,000  Level FlightAware
01:54AM 40.8370 -6.5000 46° Northeast 467 537 38,000  Level FlightAware
01:54AM 40.9030 -6.4090 46° Northeast 466 536 38,000  Level FlightAware
01:55AM 40.9720 -6.3190 45° Northeast 465 535 38,000  Level FlightAware
01:56AM 41.0370 -6.2630 33° Northeast 465 535 38,000  Level FlightAware
01:56AM 41.1250 -6.1960 30° Northeast 466 536 38,000  Level FlightAware
01:57AM 41.1970 -6.1410 30° Northeast 465 535 38,000  Level FlightAware
01:58AM 41.2660 -6.0880 30° Northeast 465 535 38,000  Level FlightAware
01:58AM 41.3450 -6.0280 30° Northeast 466 536 38,000  Level FlightAware
01:59AM 41.4200 -5.9700 30° Northeast 466 536 38,000  Level FlightAware
01:59AM 41.4690 -5.9310 31° Northeast 466 536 38,000  Level FlightAware
02:00AM 41.5640 -5.8600 29° Northeast 465 535 38,000  Level FlightAware
02:01AM 41.6510 -5.7920 30° Northeast 464 534 38,000  Level FlightAware
02:02AM 41.7350 -5.7270 30° Northeast 463 533 38,000  Level FlightAware
02:02AM 41.8070 -5.6690 31° Northeast 463 533 38,000  Level FlightAware
02:03AM 41.8920 -5.6040 30° Northeast 462 532 38,000  Level FlightAware
02:04AM 41.9650 -5.5460 31° Northeast 462 532 38,000  Level FlightAware
02:05AM 42.0390 -5.4880 30° Northeast 462 532 38,000  Level FlightAware
02:05AM 42.1030 -5.4370 31° Northeast 461 531 38,000  Level FlightAware
02:06AM 42.1870 -5.3720 30° Northeast 461 531 38,000  Level FlightAware
02:07AM 42.2600 -5.3130 31° Northeast 459 528 38,000  Level FlightAware
02:07AM 42.3230 -5.2640 30° Northeast 459 528 38,000  Level FlightAware
02:08AM 42.3960 -5.2060 30° Northeast 459 528 38,000  Level FlightAware
02:09AM 42.4780 -5.1410 30° Northeast 459 528 38,000  Level FlightAware
02:09AM 42.5500 -5.0830 31° Northeast 459 528 38,000  Level FlightAware
02:10AM 42.6340 -5.0160 30° Northeast 460 529 38,000  Level FlightAware
02:11AM 42.7000 -4.9700 27° Northeast 457 526 38,000  Level FlightAware
02:11AM 42.7980 -4.9120 23° Northeast 456 525 38,000  Level FlightAware
02:12AM 42.8730 -4.8670 24° Northeast 456 525 38,000  Level FlightAware
02:13AM 42.9500 -4.8230 23° Northeast 455 524 38,000  Level FlightAware
02:13AM 43.0380 -4.7700 24° Northeast 454 522 38,000  Level FlightAware
02:14AM 43.1150 -4.7250 23° Northeast 452 520 38,000  Level FlightAware
02:15AM 43.1940 -4.6780 23° Northeast 451 519 38,000  Level FlightAware
02:16AM 43.2780 -4.6280 23° Northeast 451 519 38,000  Level FlightAware
02:16AM 43.3640 -4.5760 24° Northeast 450 518 38,000  Level FlightAware
02:17AM 43.4410 -4.5310 23° Northeast 450 518 38,000  Level FlightAware
02:18AM 43.5150 -4.4850 24° Northeast 450 518 38,000  Level FlightAware
02:18AM 43.6020 -4.4330 23° Northeast 451 519 38,000  Level FlightAware
02:19AM 43.6670 -4.3940 23° Northeast 451 519 38,000  Level FlightAware
02:20AM 43.7430 -4.3480 24° Northeast 450 518 38,000  Level FlightAware
02:20AM 43.8220 -4.3000 24° Northeast 450 518 38,000  Level FlightAware
02:21AM 43.9150 -4.2430 24° Northeast 449 517 38,000  Level FlightAware
02:22AM 43.9930 -4.1950 24° Northeast 449 517 38,000  Level FlightAware
02:23AM 44.1380 -4.0770 30° Northeast 451 519 38,000  Level FlightAware
02:24AM 44.2120 -4.0110 33° Northeast 451 519 38,000  Level FlightAware
02:25AM 44.2810 -3.9480 33° Northeast 452 520 38,000  Level FlightAware
02:25AM 44.3770 -3.8620 33° Northeast 452 520 38,000  Level FlightAware
02:26AM 44.4490 -3.7970 33° Northeast 454 522 38,000  Level FlightAware
02:27AM 44.5260 -3.7260 33° Northeast 454 522 38,000 60 Level FlightAware
02:28AM 44.5970 -3.6620 33° Northeast 461 531 38,100 480 Climbing FlightAware
02:28AM 44.6980 -3.5710 33° Northeast 459 528 38,800 780 Climbing FlightAware
02:29AM 44.7610 -3.5120 34° Northeast 458 527 39,300 780 Climbing FlightAware
02:30AM 44.8400 -3.4390 33° Northeast 447 514 39,900 420 Climbing FlightAware
02:30AM 44.9160 -3.3700 33° Northeast 448 516 40,000  Climbing FlightAware
02:32AM 45.0170 -3.2770 33° Northeast 453 521 40,000  Level FlightAware
02:32AM 45.0990 -3.2010 33° Northeast 452 520 40,000  Level FlightAware
02:33AM 45.1610 -3.1420 34° Northeast 451 519 40,000  Level FlightAware
02:34AM 45.2510 -3.0590 33° Northeast 451 519 40,000  Level FlightAware
02:34AM 45.3210 -2.9940 33° Northeast 451 519 40,000  Level FlightAware
02:35AM 45.4030 -2.9150 34° Northeast 444 511 40,000  Level FlightAware
02:36AM 45.4730 -2.8490 33° Northeast 443 510 40,000  Level FlightAware
02:37AM 45.5450 -2.7810 33° Northeast 450 518 40,000  Level FlightAware
02:37AM 45.6190 -2.7120 33° Northeast 449 517 40,000  Level FlightAware
02:38AM 45.6940 -2.6410 33° Northeast 449 517 40,000  Level FlightAware
02:39AM 45.7690 -2.5680 34° Northeast 449 517 40,000  Level FlightAware
02:39AM 45.8380 -2.5020 34° Northeast 449 517 40,000  Level FlightAware
02:40AM 45.9180 -2.4240 34° Northeast 448 516 40,000  Level FlightAware
02:41AM 46.0030 -2.3420 34° Northeast 449 517 40,000  Level FlightAware
02:42AM 46.0730 -2.2750 34° Northeast 450 518 40,000  Level FlightAware
02:42AM 46.1380 -2.2120 34° Northeast 451 519 40,000  Level FlightAware
02:43AM 46.2070 -2.1440 34° Northeast 452 520 40,000  Level FlightAware
02:44AM 46.2800 -2.0730 34° Northeast 452 520 40,000  Level FlightAware
02:44AM 46.3530 -2.0010 34° Northeast 454 522 40,000  Level FlightAware
02:45AM 46.4160 -1.9400 34° Northeast 454 522 40,000  Level FlightAware
02:46AM 46.4920 -1.8650 34° Northeast 453 521 40,000  Level FlightAware
02:46AM 46.5540 -1.8050 34° Northeast 454 522 40,000  Level FlightAware
02:47AM 46.6250 -1.7330 35° Northeast 453 521 40,000  Level FlightAware
02:48AM 46.6990 -1.6590 34° Northeast 452 520 40,000  Level FlightAware
02:48AM 46.7580 -1.6000 34° Northeast 451 519 40,000  Level FlightAware
02:49AM 46.8330 -1.5260 34° Northeast 449 517 40,000  Level FlightAware
02:50AM 46.9010 -1.4570 35° Northeast 447 514 40,000  Level FlightAware
02:50AM 46.9590 -1.3990 34° Northeast 446 513 40,000  Level FlightAware
02:51AM 47.0290 -1.3270 35° Northeast 444 511 40,000  Level FlightAware
02:52AM 47.1000 -1.2550 35° Northeast 444 511 40,000  Level FlightAware
02:52AM 47.1740 -1.1800 35° Northeast 444 511 40,000  Level FlightAware
02:53AM 47.2430 -1.1110 34° Northeast 446 513 40,000  Level FlightAware
02:54AM 47.3180 -1.0340 35° Northeast 448 516 40,000  Level FlightAware
02:54AM 47.3840 -0.9610 37° Northeast 455 524 40,000  Level FlightAware
02:55AM 47.4290 -0.9040 41° Northeast 455 524 40,000  Level FlightAware
02:56AM 47.4990 -0.8140 41° Northeast 454 522 40,000  Level FlightAware
02:56AM 47.5630 -0.7310 41° Northeast 452 520 40,000  Level FlightAware
02:57AM 47.6330 -0.6420 41° Northeast 451 519 40,000  Level FlightAware
02:58AM 47.6990 -0.5570 41° Northeast 450 518 40,000  Level FlightAware
02:58AM 47.7600 -0.4760 42° Northeast 447 514 40,000  Level FlightAware
02:59AM 47.8240 -0.3950 40° Northeast 445 512 40,000  Level FlightAware
02:59AM 47.8640 -0.3430 41° Northeast 444 511 40,000  Level FlightAware
03:00AM 47.9530 -0.2260 41° Northeast 442 509 40,000  Level FlightAware
03:01AM 48.0100 -0.1510 41° Northeast 443 510 40,000  Level FlightAware
03:02AM 48.0790 -0.0600 41° Northeast 449 517 40,000  Level FlightAware
03:02AM 48.1480 0.0290 41° Northeast 451 519 40,000  Level FlightAware
03:03AM 48.2140 0.1180 42° Northeast 449 517 40,000  Level FlightAware
03:04AM 48.2750 0.2010 42° Northeast 448 516 40,000  Level FlightAware
03:05AM 48.3430 0.2920 42° Northeast 446 513 40,000  Level FlightAware
03:05AM 48.3934 0.3595 42° Northeast 446 513 40,000  Level FlightAware UK
03:05AM 48.4080 0.3790 42° Northeast 446 513 40,000  Level FlightAware
03:06AM 48.4730 0.4660 42° Northeast 446 513 40,000  Level FlightAware
03:07AM 48.5350 0.5490 42° Northeast 446 513 40,000  Level FlightAware
03:07AM 48.5990 0.6360 42° Northeast 447 514 40,000  Level FlightAware
03:08AM 48.6570 0.7130 42° Northeast 448 516 40,000  Level FlightAware
03:08AM 48.6610 0.7210 42° Northeast 444 511 40,000  Level FlightAware UK
03:09AM 48.7168 0.7971 42° Northeast 444 511 40,000  Level FlightAware UK
03:09AM 48.7170 0.7950 42° Northeast 448 516 40,000  Level FlightAware
03:09AM 48.7722 0.8731 42° Northeast 444 511 40,000  Level FlightAware UK
03:09AM 48.7820 0.8860 42° Northeast 450 518 40,000  Level FlightAware
03:10AM 48.8460 0.9740 42° Northeast 452 520 40,000  Level FlightAware
03:11AM 48.9193 1.0798 42° Northeast 444 511 40,000  Level FlightAware UK
03:11AM 48.9200 1.0780 42° Northeast 454 522 40,000  Level FlightAware
03:12AM 48.9900 1.1780 43° Northeast 456 525 40,000  Level FlightAware
03:12AM 49.0540 1.2680 43° Northeast 459 528 40,000  Level FlightAware
03:13AM 49.1160 1.3390 37° Northeast 454 522 40,000  Level FlightAware
03:14AM 49.1980 1.4240 34° Northeast 457 526 40,000  Level FlightAware
03:14AM 49.2571 1.4878 34° Northeast 452 520 40,000  Level FlightAware UK
03:14AM 49.2670 1.4950 34° Northeast 456 525 40,000  Level FlightAware
03:15AM 49.3390 1.5710 35° Northeast 455 524 40,000  Level FlightAware
03:16AM 49.4000 1.6350 34° Northeast 453 521 40,000  Level FlightAware
03:16AM 49.4790 1.7180 34° Northeast 453 521 40,000  Level FlightAware
03:17AM 49.5470 1.7890 34° Northeast 454 522 40,000  Level FlightAware
03:18AM 49.6040 1.8470 33° Northeast 450 518 40,000  Level FlightAware
03:18AM 49.6655 1.9043 33° Northeast 456 525 40,000  Level FlightAware UK
03:18AM 49.6890 1.9230 33° Northeast 445 512 40,000  Level FlightAware
03:19AM 49.7507 1.9811 33° Northeast 452 520 40,000  Level FlightAware UK
03:19AM 49.7560 1.9840 33° Northeast 443 510 40,000  Level FlightAware
03:20AM 49.8310 2.0500 30° Northeast 443 510 40,000  Level FlightAware
03:20AM 49.9103 2.1249 30° Northeast 454 522 40,000  Level FlightAware UK
03:20AM 49.9080 2.1210 30° Northeast 443 510 40,000  Level FlightAware
03:21AM 49.9810 2.1870 30° Northeast 443 510 40,000  Level FlightAware
03:21AM 49.9845 2.1924 30° Northeast 454 522 40,000  Level FlightAware UK
03:22AM 50.0373 2.2413 30° Northeast 454 522 40,000  Level FlightAware UK
03:22AM 50.0550 2.2550 30° Northeast 442 509 40,000  Level FlightAware
03:22AM 50.1170 2.3140 31° Northeast 441 507 40,000  Level FlightAware
03:23AM 50.1940 2.3860 31° Northeast 440 506 40,000  Level FlightAware
03:24AM 50.2630 2.4490 30° Northeast 438 504 40,000  Level FlightAware
03:25AM 50.3410 2.5210 30° Northeast 436 502 40,000  Level FlightAware
03:25AM 50.4100 2.5850 31° Northeast 434 499 40,000 -480 Level FlightAware
03:26AM 50.4840 2.6550 31° Northeast 438 504 39,400 -900 Descending FlightAware
03:27AM 50.5520 2.7190 31° Northeast 442 509 38,800 -960 Descending FlightAware
03:27AM 50.6170 2.7800 31° Northeast 439 505 38,200 -1,080 Descending FlightAware
03:27AM 50.6469 2.8083 31° Northeast 439 505 37,900 -1,260 Descending FlightAware ADS-B
03:28AM 50.7126 2.8712 31° Northeast 438 504 37,100 -2,280 Descending FlightAware ADS-B
03:29AM 50.8320 2.9870 31° Northeast 438 504 33,800 -2,820 Descending FlightAware
03:30AM 50.9080 3.0590 31° Northeast 439 505 31,700 -3,060 Descending FlightAware
03:31AM 50.9656 3.1152 31° Northeast 442 509 30,000 -3,120 Descending FlightAware UK
03:31AM 50.9700 3.1170 31° Northeast 440 506 29,900 -2,580 Descending FlightAware
03:31AM 51.0391 3.1858 31° Northeast 434 499 28,200 -2,580 Descending FlightAware UK
03:31AM 51.0440 3.1900 31° Northeast 431 496 28,100 -2,220 Descending FlightAware
03:32AM 51.1220 3.2650 31° Northeast 420 483 26,300 -2,520 Descending FlightAware
03:33AM 51.1810 3.3230 31° Northeast 416 479 24,700 -3,000 Descending FlightAware
03:33AM 51.1887 3.3306 31° Northeast 416 479 24,400 -960 Descending FlightAware UK
03:33AM 51.2510 3.3920 32° Northeast 391 450 24,000 -300 Descending FlightAware
03:34AM 51.3190 3.4580 31° Northeast 375 432 24,000 -720 Level FlightAware
03:35AM 51.3870 3.5240 31° Northeast 378 435 23,000 -2,220 Descending FlightAware
03:36AM 51.4500 3.5890 33° Northeast 393 452 20,800 -3,180 Descending FlightAware
03:36AM 51.4980 3.6450 36° Northeast 401 461 19,100 -2,220 Descending FlightAware
03:37AM 51.5570 3.7140 36° Northeast 375 432 18,100 -1,860 Descending FlightAware
03:38AM 51.6180 3.7850 36° Northeast 367 422 16,500 -2,340 Descending FlightAware
03:38AM 51.6690 3.8440 36° Northeast 364 419 15,000 -2,220 Descending FlightAware
03:39AM 51.7160 3.9000 36° Northeast 354 407 13,800 -2,220 Descending FlightAware
03:39AM 51.7622 3.9551 36° Northeast 352 405 12,500 -2,340 Descending FlightAware UK
03:40AM 51.7750 3.9690 36° Northeast 348 400 12,200 -1,140 Descending FlightAware
03:40AM 51.8297 4.0346 36° Northeast 322 371 11,500 -960 Descending FlightAware UK
03:40AM 51.8290 4.0330 36° Northeast 318 366 11,500 -1,680 Level FlightAware
03:41AM 51.8780 4.0910 36° Northeast 310 357 10,300 -1,560 Descending FlightAware
03:41AM 51.8970 4.1130 36° Northeast 303 349 10,000 -1,020 Descending FlightAware
03:42AM 51.9240 4.1470 38° Northeast 286 329 9,600 -1,080 Descending FlightAware
03:42AM 51.9530 4.1910 43° Northeast 277 319 9,000 -960 Descending FlightAware
03:42AM 51.9710 4.2170 42° Northeast 268 308 8,800 -600 Descending FlightAware
03:43AM 51.9840 4.2530 60° Northeast 252 290 8,600 -720 Descending FlightAware
03:43AM 51.9850 4.2910 88° East 247 284 8,300 -900 Descending FlightAware
03:44AM 51.9840 4.3390 92° East 235 270 7,900 -1,260 Descending FlightAware
03:44AM 51.9840 4.3930 90° East 230 265 7,100 -1,680 Descending FlightAware
03:45AM 51.9830 4.4640 91° East 230 265 6,000 -1,620 Descending FlightAware
03:45AM 51.9830 4.4740 90° East 228 262 5,900 -1,020 Descending FlightAware
03:45AM 51.9830 4.5250 90° East 228 262 5,400 -960 Descending FlightAware
03:46AM 51.9830 4.5590 90° East 226 260 5,100 -540 Descending FlightAware
03:46AM 51.9830 4.6040 90° East 219 252 5,000 -300 Descending FlightAware
03:47AM 51.9930 4.6630 75° East 211 243 4,800 -540 Descending FlightAware
03:47AM 52.0060 4.6760 32° Northeast 205 236 4,500 -900 Descending FlightAware
03:48AM 52.0250 4.6920 27° Northeast 198 228 4,200 -720 Descending FlightAware
03:48AM 52.0400 4.7060 30° Northeast 196 226 4,000 -600 Descending FlightAware
03:48AM 52.0570 4.7210 28° Northeast 194 223 3,800 -660 Descending FlightAware
03:49AM 52.0780 4.7390 28° Northeast 195 224 3,500 -720 Descending FlightAware
03:49AM 52.1010 4.7550 23° Northeast 195 224 3,200 -780 Descending FlightAware
03:50AM 52.1250 4.7610 North 198 228 2,800 -840 Descending FlightAware
03:50AM 52.1420 4.7640 North 194 223 2,600 -960 Descending FlightAware
03:50AM 52.1580 4.7650 North 195 224 2,200 -1,200 Descending FlightAware
03:51AM 52.1810 4.7670 North 178 205 1,700 -1,200 Descending FlightAware
03:51AM 52.2040 4.7690 North 170 196 1,200 -1,020 Descending FlightAware
03:52AM 52.2270 4.7710 North 157 181 800 -900 Descending FlightAware
03:52AM 52.2460 4.7730 North 157 181 400 -960 Descending FlightAware
03:52AM 52.2650 4.7750 North 154 177 -960 Descending FlightAware
03:53AM 52.2850 4.7770 North 150 173  Level FlightAware
03:53AM 52.3000 4.7780 North 149 171  Level FlightAware
03:56AM 52.3086 4.7639 315° West  Level Estimated
03:57AM 52.3086 4.7639 348° North  Level Estimated
03:58AM 52.3086 4.7639 348° North  Level Estimated
03:59AM 52.3086 4.7639 348° North  Level Estimated
04:00AM 52.3086 4.7639 348° North  Level Estimated
04:01AM 52.3086 4.7639 348° North  Level Estimated
04:02AM 52.3086 4.7639 348° North  Level Estimated
04:03AM 52.3086 4.7639 348° North  Level Estimated
04:04AM 52.3086 4.7639 348° North  Level Estimated